createdAt,value
2018-01-28T00:01:44.481Z,4.70
2018-01-28T00:04:14.344Z,12.13
2018-01-28T00:06:44.099Z,6.03
2018-01-28T00:09:13.681Z,7.47
2018-01-28T00:11:43.210Z,5.43
2018-01-28T00:14:13.041Z,6.73
2018-01-28T00:16:42.693Z,15.63
2018-01-28T00:19:25.229Z,3.40
2018-01-28T00:21:54.762Z,2.73
2018-01-28T00:24:32.147Z,4.60
2018-01-28T00:27:01.634Z,3.50
2018-01-28T00:29:31.209Z,5.50
2018-01-28T00:32:07.330Z,5.43
2018-01-28T00:34:36.905Z,2.10
2018-01-28T00:37:06.462Z,4.63
2018-01-28T00:39:36.035Z,5.20
2018-01-28T00:42:05.646Z,3.80
2018-01-28T00:44:35.198Z,5.87
2018-01-28T00:47:07.674Z,3.17
2018-01-28T00:49:37.189Z,3.93
2018-01-28T00:52:06.763Z,5.00
2018-01-28T00:54:36.314Z,5.43
2018-01-28T00:57:05.865Z,4.87
2018-01-28T00:59:37.226Z,4.20
2018-01-28T01:02:07.228Z,5.23
2018-01-28T01:04:36.861Z,7.13
2018-01-28T01:07:12.618Z,4.13
2018-01-28T01:09:42.183Z,3.50
2018-01-28T01:12:11.689Z,4.33
2018-01-28T01:14:48.734Z,3.47
2018-01-28T01:17:18.305Z,3.53
2018-01-28T01:19:47.853Z,4.90
2018-01-28T01:22:17.501Z,5.60
2018-01-28T01:24:47.069Z,5.57
2018-01-28T01:27:16.590Z,4.60
2018-01-28T01:29:46.655Z,5.40
2018-01-28T01:32:16.162Z,6.70
2018-01-28T01:34:45.693Z,3.93
2018-01-28T01:37:15.237Z,4.97
2018-01-28T01:39:44.796Z,4.50
2018-01-28T01:42:14.431Z,2.73
2018-01-28T01:44:44.441Z,6.20
2018-01-28T01:47:14.005Z,7.10
2018-01-28T01:49:54.571Z,3.67
2018-01-28T01:52:24.346Z,8.53
2018-01-28T01:54:53.892Z,2.50
2018-01-28T01:57:23.450Z,3.63
2018-01-28T01:59:53.711Z,4.80
2018-01-28T02:02:23.387Z,6.13
2018-01-28T02:04:52.907Z,2.93
2018-01-28T02:07:22.477Z,5.90
2018-01-28T02:09:52.021Z,2.13
2018-01-28T02:12:21.739Z,7.53
2018-01-28T02:14:51.318Z,4.40
2018-01-28T02:17:21.741Z,3.37
2018-01-28T02:19:51.362Z,4.80
2018-01-28T02:22:26.708Z,3.57
2018-01-28T02:24:56.286Z,5.50
2018-01-28T02:27:26.617Z,5.57
2018-01-28T02:29:56.203Z,4.03
2018-01-28T02:32:25.771Z,2.57
2018-01-28T02:34:55.379Z,3.10
2018-01-28T02:37:24.913Z,7.20
2018-01-28T02:39:54.437Z,4.77
2018-01-28T02:42:24.161Z,2.80
2018-01-28T02:44:53.823Z,3.17
2018-01-28T02:47:23.379Z,3.03
2018-01-28T02:49:59.900Z,3.83
2018-01-28T02:52:29.660Z,3.43
2018-01-28T02:54:59.307Z,5.80
2018-01-28T02:57:36.225Z,2.00
2018-01-28T03:00:05.802Z,2.60
2018-01-28T03:02:42.682Z,1.93
2018-01-28T03:05:16.352Z,4.50
2018-01-28T03:07:45.989Z,3.07
2018-01-28T03:10:15.771Z,2.13
2018-01-28T03:12:51.631Z,5.97
2018-01-28T03:15:24.361Z,3.30
2018-01-28T03:17:53.869Z,4.00
2018-01-28T03:20:23.466Z,9.13
2018-01-28T03:22:52.994Z,2.90
2018-01-28T03:25:23.753Z,2.27
2018-01-28T03:27:53.272Z,2.80
2018-01-28T03:30:22.837Z,2.80
2018-01-28T03:32:55.838Z,5.53
2018-01-28T03:35:25.456Z,3.97
2018-01-28T03:37:55.817Z,6.50
2018-01-28T03:40:45.541Z,2.03
2018-01-28T03:43:22.268Z,5.70
2018-01-28T03:45:51.786Z,7.07
2018-01-28T03:48:21.375Z,4.50
2018-01-28T03:50:50.947Z,6.87
2018-01-28T03:53:20.463Z,5.63
2018-01-28T03:55:50.100Z,5.13
2018-01-28T03:58:19.613Z,3.73
2018-01-28T04:00:49.170Z,3.40
2018-01-28T04:03:18.713Z,2.80
2018-01-28T04:05:54.401Z,5.57
2018-01-28T04:08:23.929Z,2.60
2018-01-28T04:10:53.494Z,3.13
2018-01-28T04:13:23.222Z,4.50
2018-01-28T04:15:52.770Z,2.80
2018-01-28T04:18:22.407Z,5.37
2018-01-28T04:20:52.019Z,3.50
2018-01-28T04:23:21.571Z,5.37
2018-01-28T04:25:51.146Z,3.63
2018-01-28T04:28:21.694Z,5.93
2018-01-28T04:30:51.339Z,5.47
2018-01-28T04:33:20.863Z,2.17
2018-01-28T04:35:50.397Z,2.80
2018-01-28T04:38:20.166Z,4.60
2018-01-28T04:40:49.729Z,3.50
2018-01-28T04:43:19.294Z,3.67
2018-01-28T04:45:48.840Z,3.53
2018-01-28T04:48:20.059Z,12.30
2018-01-28T04:50:50.810Z,6.80
2018-01-28T04:53:20.367Z,2.60
2018-01-28T04:55:50.131Z,5.97
2018-01-28T04:58:19.826Z,4.10
2018-01-28T05:00:49.872Z,5.00
2018-01-28T05:03:19.385Z,5.70
2018-01-28T05:05:48.892Z,7.37
2018-01-28T05:08:18.562Z,4.30
2018-01-28T05:10:48.204Z,2.90
2018-01-28T05:13:17.839Z,5.27
2018-01-28T05:15:47.470Z,9.13
2018-01-28T05:18:23.127Z,1.90
2018-01-28T05:20:52.727Z,5.53
2018-01-28T05:23:22.333Z,2.63
2018-01-28T05:25:52.010Z,6.47
2018-01-28T05:28:21.614Z,2.53
2018-01-28T05:30:54.155Z,5.23
2018-01-28T05:33:23.657Z,4.40
2018-01-28T05:35:53.195Z,4.63
2018-01-28T05:38:28.259Z,4.13
2018-01-28T05:40:57.826Z,2.20
2018-01-28T05:43:27.381Z,7.10
2018-01-28T05:45:56.971Z,4.13
2018-01-28T05:48:26.569Z,3.40
2018-01-28T05:50:56.590Z,4.30
2018-01-28T05:53:26.215Z,2.40
2018-01-28T05:55:55.791Z,3.27
2018-01-28T05:58:25.426Z,3.00
2018-01-28T06:00:54.994Z,3.67
2018-01-28T06:03:24.946Z,7.93
2018-01-28T06:05:54.545Z,4.23
2018-01-28T06:08:24.161Z,4.20
2018-01-28T06:10:53.718Z,2.10
2018-01-28T06:13:24.333Z,3.10
2018-01-28T06:15:59.934Z,5.60
2018-01-28T06:18:29.539Z,4.73
2018-01-28T06:20:59.320Z,10.17
2018-01-28T06:23:28.934Z,7.03
2018-01-28T06:25:58.472Z,2.97
2018-01-28T06:28:27.994Z,3.93
2018-01-28T06:30:57.639Z,18.03
2018-01-28T06:33:27.454Z,11.13
2018-01-28T06:35:57.309Z,18.07
2018-01-28T06:38:26.860Z,14.43
2018-01-28T06:40:56.328Z,7.80
2018-01-28T06:43:26.732Z,9.90
2018-01-28T06:45:56.294Z,12.23
2018-01-28T06:48:25.854Z,4.83
2018-01-28T06:51:02.400Z,7.47
2018-01-28T06:53:32.504Z,3.73
2018-01-28T06:56:02.046Z,7.00
2018-01-28T06:58:31.749Z,10.50
2018-01-28T07:01:02.252Z,7.70
2018-01-28T07:03:43.849Z,1.83
2018-01-28T07:06:13.368Z,8.10
2018-01-28T07:08:43.017Z,12.83
2018-01-28T07:11:12.678Z,5.63
2018-01-28T07:13:42.284Z,6.17
2018-01-28T07:16:12.668Z,6.90
2018-01-28T07:18:42.404Z,7.90
2018-01-28T07:21:11.953Z,5.50
2018-01-28T07:23:41.587Z,7.63
2018-01-28T07:26:11.151Z,5.40
2018-01-28T07:28:40.742Z,3.73
2018-01-28T07:31:10.413Z,4.23
2018-01-28T07:33:39.897Z,4.57
2018-01-28T07:36:10.193Z,5.67
2018-01-28T07:38:39.730Z,11.33
2018-01-28T07:41:09.331Z,4.13
2018-01-28T07:43:38.878Z,5.97
2018-01-28T07:46:15.488Z,6.90
2018-01-28T07:48:45.022Z,6.43
2018-01-28T07:51:14.683Z,5.37
2018-01-28T07:53:44.918Z,10.23
2018-01-28T07:56:14.854Z,6.27
2018-01-28T07:58:46.083Z,4.57
2018-01-28T08:01:15.837Z,5.47
2018-01-28T08:03:45.853Z,5.23
2018-01-28T08:06:15.673Z,16.20
2018-01-28T08:08:47.047Z,7.40
2018-01-28T08:11:33.142Z,3.33
2018-01-28T08:14:07.991Z,6.30
2018-01-28T08:16:37.843Z,11.03
2018-01-28T08:19:07.814Z,9.47
2018-01-28T08:21:44.509Z,14.90
2018-01-28T08:24:27.478Z,10.30
2018-01-28T08:26:58.003Z,23.10
2018-01-28T08:29:30.225Z,16.53
2018-01-28T08:32:00.577Z,18.03
2018-01-28T08:34:36.360Z,6.57
2018-01-28T08:37:05.966Z,6.70
2018-01-28T08:39:41.574Z,6.27
2018-01-28T08:42:11.108Z,21.67
2018-01-28T08:44:40.740Z,11.33
2018-01-28T08:47:10.586Z,8.17
2018-01-28T08:49:40.138Z,10.30
2018-01-28T08:52:09.685Z,16.03
2018-01-28T08:54:46.782Z,13.67
2018-01-28T08:57:16.345Z,7.20
2018-01-28T08:59:45.865Z,9.93
2018-01-28T09:02:16.466Z,8.93
2018-01-28T09:04:46.097Z,6.83
2018-01-28T09:07:15.668Z,9.90
2018-01-28T09:09:45.158Z,9.93
2018-01-28T09:12:23.867Z,4.30
2018-01-28T09:14:53.382Z,6.37
2018-01-28T09:17:23.042Z,9.23
2018-01-28T09:19:56.149Z,10.73
2018-01-28T09:22:25.753Z,13.83
2018-01-28T09:24:55.705Z,11.63
2018-01-28T09:27:25.314Z,12.10
2018-01-28T09:29:55.561Z,7.27
2018-01-28T09:32:26.011Z,14.10
2018-01-28T09:34:55.878Z,19.60
2018-01-28T09:37:25.386Z,8.30
2018-01-28T09:39:55.087Z,15.67
2018-01-28T09:42:24.731Z,13.63
2018-01-28T09:44:57.036Z,16.20
2018-01-28T09:47:27.202Z,16.87
2018-01-28T09:49:56.814Z,10.83
2018-01-28T09:52:26.858Z,6.37
2018-01-28T09:54:56.410Z,14.20
2018-01-28T09:57:26.865Z,16.30
2018-01-28T09:59:56.475Z,13.00
2018-01-28T10:02:28.574Z,11.03
2018-01-28T10:05:06.542Z,13.37
2018-01-28T10:07:36.082Z,17.77
2018-01-28T10:10:12.967Z,12.17
2018-01-28T10:12:42.638Z,11.40
2018-01-28T10:15:12.314Z,17.03
2018-01-28T10:17:42.790Z,13.87
2018-01-28T10:20:12.379Z,14.60
2018-01-28T10:22:42.296Z,25.43
2018-01-28T10:25:11.962Z,10.57
2018-01-28T10:27:41.512Z,20.33
2018-01-28T10:30:12.102Z,15.73
2018-01-28T10:32:41.665Z,17.00
2018-01-28T10:35:11.247Z,19.20
2018-01-28T10:37:41.243Z,18.83
2018-01-28T10:40:10.841Z,13.47
2018-01-28T10:42:40.386Z,12.30
2018-01-28T10:45:10.032Z,14.93
2018-01-28T10:47:39.719Z,11.37
2018-01-28T10:50:09.266Z,8.17
2018-01-28T10:52:38.933Z,16.63
2018-01-28T10:55:08.467Z,12.50
2018-01-28T10:57:38.064Z,20.13
2018-01-28T11:00:07.803Z,14.60
2018-01-28T11:02:38.085Z,11.13
2018-01-28T11:05:07.901Z,16.10
2018-01-28T11:07:37.554Z,13.83
2018-01-28T11:10:07.226Z,16.00
2018-01-28T11:12:38.052Z,14.43
2018-01-28T11:15:07.770Z,10.03
2018-01-28T11:17:37.558Z,8.07
2018-01-28T11:20:17.490Z,16.63
2018-01-28T11:22:48.854Z,12.33
2018-01-28T11:25:18.417Z,13.00
2018-01-28T11:27:48.553Z,11.40
2018-01-28T11:30:18.553Z,13.63
2018-01-28T11:32:48.071Z,9.40
2018-01-28T11:35:26.718Z,11.83
2018-01-28T11:37:56.766Z,16.13
2018-01-28T11:40:26.423Z,12.63
2018-01-28T11:42:56.458Z,7.90
2018-01-28T11:45:27.606Z,5.00
2018-01-28T11:47:57.299Z,9.07
2018-01-28T11:50:31.248Z,15.10
2018-01-28T11:53:01.140Z,17.90
2018-01-28T11:55:30.767Z,10.00
2018-01-28T11:58:00.286Z,6.77
2018-01-28T12:00:29.918Z,38.50
2018-01-28T12:02:59.549Z,16.80
2018-01-28T12:05:29.154Z,8.37
2018-01-28T12:07:58.786Z,8.80
2018-01-28T12:10:28.717Z,9.70
2018-01-28T12:12:58.401Z,10.70
2018-01-28T12:15:34.871Z,14.83
2018-01-28T12:18:04.509Z,7.60
2018-01-28T12:20:34.177Z,7.67
2018-01-28T12:23:03.916Z,6.10
2018-01-28T12:25:46.370Z,9.77
2018-01-28T12:28:28.935Z,7.80
2018-01-28T12:30:58.524Z,18.67
2018-01-28T12:33:29.643Z,13.93
2018-01-28T12:35:59.328Z,20.60
2018-01-28T12:38:29.133Z,12.70
2018-01-28T12:40:59.648Z,11.93
2018-01-28T12:43:29.243Z,25.50
2018-01-28T12:45:58.829Z,6.53
2018-01-28T12:48:28.442Z,14.10
2018-01-28T12:50:58.023Z,11.70
2018-01-28T12:53:28.015Z,14.37
2018-01-28T12:56:03.727Z,19.77
2018-01-28T12:58:33.298Z,16.03
2018-01-28T13:01:02.947Z,7.70
2018-01-28T13:03:32.514Z,12.93
2018-01-28T13:06:02.080Z,18.83
2018-01-28T13:08:32.128Z,13.17
2018-01-28T13:11:07.922Z,15.20
2018-01-28T13:13:37.450Z,11.00
2018-01-28T13:16:06.994Z,10.43
2018-01-28T13:18:36.941Z,13.00
2018-01-28T13:21:06.794Z,15.07
2018-01-28T13:23:36.415Z,12.67
2018-01-28T13:26:06.000Z,11.10
2018-01-28T13:28:35.703Z,16.27
2018-01-28T13:31:09.546Z,13.17
2018-01-28T13:33:39.169Z,12.80
2018-01-28T13:36:17.043Z,14.03
2018-01-28T13:38:47.001Z,12.70
2018-01-28T13:41:16.505Z,12.80
2018-01-28T13:43:46.057Z,10.23
2018-01-28T13:46:21.627Z,21.63
2018-01-28T13:49:05.554Z,28.27
2018-01-28T13:51:38.296Z,21.50
2018-01-28T13:54:12.091Z,10.53
2018-01-28T13:56:41.669Z,13.13
2018-01-28T13:59:12.391Z,13.20
2018-01-28T14:01:42.848Z,19.50
2018-01-28T14:04:12.645Z,10.40
2018-01-28T14:06:42.206Z,12.90
2018-01-28T14:09:13.010Z,10.63
2018-01-28T14:11:42.631Z,17.63
2018-01-28T14:14:12.592Z,14.33
2018-01-28T14:16:42.117Z,21.50
2018-01-28T14:19:11.704Z,16.97
2018-01-28T14:21:44.761Z,14.60
2018-01-28T14:24:21.590Z,14.30
2018-01-28T14:26:51.486Z,11.70
2018-01-28T14:29:21.055Z,14.70
2018-01-28T14:31:50.694Z,11.07
2018-01-28T14:34:20.281Z,17.10
2018-01-28T14:36:49.840Z,18.17
2018-01-28T14:39:19.421Z,21.70
2018-01-28T14:41:48.963Z,33.23
2018-01-28T14:44:18.558Z,11.53
2018-01-28T14:46:54.165Z,19.47
2018-01-28T14:49:24.012Z,18.63
2018-01-28T14:51:56.577Z,19.07
2018-01-28T14:54:26.273Z,18.70
2018-01-28T14:56:55.853Z,10.37
2018-01-28T14:59:25.441Z,19.40
2018-01-28T15:01:54.978Z,17.23
2018-01-28T15:04:24.522Z,14.50
2018-01-28T15:06:54.041Z,38.23
2018-01-28T15:09:23.550Z,25.70
2018-01-28T15:11:53.089Z,16.73
2018-01-28T15:14:27.425Z,18.43
2018-01-28T15:16:56.988Z,12.27
2018-01-28T15:19:26.526Z,13.70
2018-01-28T15:21:57.073Z,21.73
2018-01-28T15:24:26.643Z,11.77
2018-01-28T15:26:56.164Z,27.93
2018-01-28T15:29:25.819Z,20.03
2018-01-28T15:31:55.458Z,22.00
2018-01-28T15:34:24.994Z,31.43
2018-01-28T15:36:54.575Z,20.67
2018-01-28T15:39:24.930Z,23.80
2018-01-28T15:41:54.518Z,21.30
2018-01-28T15:44:24.081Z,35.43
2018-01-28T15:46:53.621Z,26.50
2018-01-28T15:49:23.642Z,13.20
2018-01-28T15:51:53.207Z,29.50
2018-01-28T15:54:22.831Z,18.77
2018-01-28T15:56:52.833Z,15.30
2018-01-28T15:59:22.385Z,25.80
2018-01-28T16:01:52.021Z,15.20
2018-01-28T16:04:27.671Z,18.97
2018-01-28T16:06:57.178Z,19.70
2018-01-28T16:09:26.749Z,26.07
2018-01-28T16:11:56.321Z,21.50
2018-01-28T16:14:26.082Z,16.03
2018-01-28T16:16:57.598Z,27.33
2018-01-28T16:19:28.549Z,26.73
2018-01-28T16:21:58.118Z,21.93
2018-01-28T16:24:35.078Z,29.40
2018-01-28T16:27:04.709Z,21.37
2018-01-28T16:29:34.244Z,9.47
2018-01-28T16:32:03.801Z,4.93
2018-01-28T16:34:33.388Z,15.50
2018-01-28T16:37:03.039Z,10.10
2018-01-28T16:39:32.608Z,8.57
2018-01-28T16:42:02.719Z,5.40
2018-01-28T16:44:32.227Z,6.73
2018-01-28T16:47:01.774Z,13.53
2018-01-28T16:49:32.230Z,14.83
2018-01-28T16:52:04.376Z,15.00
2018-01-28T16:54:36.291Z,8.13
2018-01-28T16:57:05.873Z,10.37
2018-01-28T16:59:35.691Z,14.63
2018-01-28T17:02:05.321Z,8.37
2018-01-28T17:04:38.629Z,9.83
2018-01-28T17:07:08.199Z,10.00
2018-01-28T17:09:37.775Z,9.10
2018-01-28T17:12:09.104Z,7.10
2018-01-28T17:14:47.219Z,22.53
2018-01-28T17:17:22.923Z,8.70
2018-01-28T17:19:52.603Z,14.80
2018-01-28T17:22:23.573Z,9.63
2018-01-28T17:24:56.617Z,8.80
2018-01-28T17:27:26.162Z,15.70
2018-01-28T17:29:56.080Z,15.03
2018-01-28T17:32:25.631Z,29.70
2018-01-28T17:34:56.897Z,8.57
2018-01-28T17:37:26.465Z,14.53
2018-01-28T17:39:56.101Z,14.37
2018-01-28T17:42:25.714Z,6.70
2018-01-28T17:44:58.934Z,15.30
2018-01-28T17:47:28.536Z,10.33
2018-01-28T17:49:58.381Z,13.30
2018-01-28T17:52:28.308Z,8.90
2018-01-28T17:54:57.906Z,10.50
2018-01-28T17:57:27.746Z,6.93
2018-01-28T17:59:57.293Z,6.00
2018-01-28T18:02:26.827Z,12.47
2018-01-28T18:04:56.394Z,14.93
2018-01-28T18:07:33.906Z,4.10
2018-01-28T18:10:03.582Z,6.10
2018-01-28T18:12:33.611Z,10.90
2018-01-28T18:15:06.167Z,5.17
2018-01-28T18:17:36.006Z,4.10
2018-01-28T18:20:08.237Z,3.57
2018-01-28T18:22:43.979Z,5.47
2018-01-28T18:25:13.554Z,3.13
2018-01-28T18:27:43.137Z,4.20
2018-01-28T18:30:12.706Z,5.43
2018-01-28T18:32:42.276Z,6.70
2018-01-28T18:35:11.823Z,6.07
2018-01-28T18:37:41.562Z,3.63
2018-01-28T18:40:11.282Z,2.00
2018-01-28T18:42:41.592Z,2.43
2018-01-28T18:45:12.098Z,5.00
2018-01-28T18:47:41.701Z,3.20
2018-01-28T18:50:11.949Z,4.50
2018-01-28T18:52:42.531Z,2.20
2018-01-28T18:55:12.659Z,1.30
2018-01-28T18:57:43.555Z,3.30
2018-01-28T19:00:13.057Z,4.63
2018-01-28T19:02:42.613Z,5.80
2018-01-28T19:05:12.256Z,2.80
2018-01-28T19:07:41.835Z,3.40
2018-01-28T19:10:11.413Z,2.70
2018-01-28T19:12:42.988Z,2.47
2018-01-28T19:15:12.652Z,3.73
2018-01-28T19:17:42.207Z,5.27
2018-01-28T19:20:11.718Z,2.77
2018-01-28T19:22:47.571Z,1.47
2018-01-28T19:25:17.618Z,2.80
2018-01-28T19:27:47.159Z,2.43
2018-01-28T19:30:16.743Z,2.63
2018-01-28T19:32:48.215Z,1.83
2018-01-28T19:35:17.831Z,2.57
2018-01-28T19:37:54.459Z,12.37
2018-01-28T19:40:23.995Z,2.80
2018-01-28T19:42:53.806Z,5.83
2018-01-28T19:45:23.407Z,1.50
2018-01-28T19:48:00.331Z,1.30
2018-01-28T19:50:29.890Z,1.80
2018-01-28T19:52:59.550Z,3.33
2018-01-28T19:55:29.243Z,1.73
2018-01-28T19:57:59.051Z,2.17
2018-01-28T20:00:28.991Z,2.47
2018-01-28T20:02:58.610Z,1.93
2018-01-28T20:05:28.575Z,2.07
2018-01-28T20:07:58.942Z,4.80
2018-01-28T20:10:28.507Z,1.43
2018-01-28T20:13:05.995Z,1.40
2018-01-28T20:15:42.926Z,2.87
2018-01-28T20:18:12.525Z,1.30
2018-01-28T20:20:42.064Z,2.30
2018-01-28T20:23:11.730Z,1.43
2018-01-28T20:25:41.380Z,2.60
2018-01-28T20:28:12.371Z,2.60
2018-01-28T20:30:42.107Z,1.90
2018-01-28T20:33:11.646Z,2.07
2018-01-28T20:35:41.340Z,2.70
2018-01-28T20:38:11.645Z,2.23
2018-01-28T20:40:41.163Z,3.63
2018-01-28T20:43:25.054Z,1.83
2018-01-28T20:45:54.660Z,4.20
2018-01-28T20:48:24.471Z,3.80
2018-01-28T20:50:54.059Z,2.00
2018-01-28T20:53:24.157Z,1.20
2018-01-28T20:55:54.873Z,1.87
2018-01-28T20:58:24.471Z,1.40
2018-01-28T21:00:54.011Z,4.50
2018-01-28T21:03:24.380Z,1.37
2018-01-28T21:05:54.315Z,2.90
2018-01-28T21:08:23.981Z,1.67
2018-01-28T21:10:53.518Z,2.43
2018-01-28T21:13:24.249Z,2.30
2018-01-28T21:16:06.944Z,1.23
2018-01-28T21:18:36.544Z,1.93
2018-01-28T21:21:06.407Z,1.67
2018-01-28T21:23:37.134Z,1.63
2018-01-28T21:26:08.839Z,3.40
2018-01-28T21:28:39.325Z,1.40
2018-01-28T21:31:08.925Z,1.50
2018-01-28T21:33:44.609Z,2.90
2018-01-28T21:36:14.301Z,2.80
2018-01-28T21:38:51.083Z,2.20
2018-01-28T21:41:20.673Z,1.13
2018-01-28T21:43:50.502Z,3.17
2018-01-28T21:46:20.256Z,1.40
2018-01-28T21:48:49.976Z,2.13
2018-01-28T21:51:19.799Z,1.33
2018-01-28T21:53:49.343Z,2.10
2018-01-28T21:56:18.880Z,1.50
2018-01-28T21:58:48.456Z,6.23
2018-01-28T22:01:18.306Z,1.93
2018-01-28T22:03:47.924Z,1.23
2018-01-28T22:06:17.501Z,1.37
2018-01-28T22:08:50.162Z,4.80
2018-01-28T22:11:19.790Z,1.53
2018-01-28T22:13:49.854Z,1.77
2018-01-28T22:16:19.462Z,2.80
2018-01-28T22:18:49.063Z,2.30
2018-01-28T22:21:19.581Z,2.70
2018-01-28T22:23:49.316Z,1.30
2018-01-28T22:26:26.951Z,1.67
2018-01-28T22:28:56.475Z,1.53
2018-01-28T22:31:25.999Z,1.57
2018-01-28T22:33:55.922Z,2.53
2018-01-28T22:36:26.688Z,3.13
2018-01-28T22:39:03.863Z,5.50
2018-01-28T22:41:45.951Z,3.10
2018-01-28T22:44:15.508Z,5.43
2018-01-28T22:46:45.065Z,5.00
2018-01-28T22:49:14.697Z,2.80
2018-01-28T22:51:44.251Z,4.90
2018-01-28T22:54:32.082Z,2.27
2018-01-28T22:57:01.769Z,1.67
2018-01-28T22:59:32.433Z,7.97
2018-01-28T23:02:02.091Z,4.70
2018-01-28T23:04:31.706Z,2.40
2018-01-28T23:07:02.638Z,4.20
2018-01-28T23:09:32.176Z,4.30
2018-01-28T23:12:01.799Z,3.90
2018-01-28T23:14:31.802Z,6.50
2018-01-28T23:17:07.346Z,5.43
2018-01-28T23:19:36.948Z,3.40
2018-01-28T23:22:06.502Z,3.20
2018-01-28T23:24:36.076Z,8.10
2018-01-28T23:27:05.591Z,7.50
2018-01-28T23:29:35.203Z,7.40
2018-01-28T23:32:05.562Z,2.17
2018-01-28T23:34:35.114Z,2.37
2018-01-28T23:37:12.348Z,3.20
2018-01-28T23:39:41.980Z,2.33
2018-01-28T23:42:12.063Z,2.13
2018-01-28T23:44:41.884Z,3.97
2018-01-28T23:47:18.811Z,3.47
2018-01-28T23:49:48.369Z,2.03
2018-01-28T23:52:18.447Z,2.47
2018-01-28T23:54:48.020Z,3.00
2018-01-28T23:57:18.105Z,4.20
2018-01-28T23:59:47.655Z,3.43
